Terminal Aerodrome Forecast
Issued by NWS North Platte, NE

Home | Current Version | Previous Version | Text Only | Print | Product List | Glossary On
Versions: 1 2 3 4 5 6 7 8 9 10 11 12 13 14 15 16 17
409
FTUS43 KLBF 280657 AAA
TAFLBF
TAF AMD
KLBF 280657Z 2807/0106 35010KT P6SM BKN200
     FM281000 33006KT P6SM BKN200
     FM281400 33008KT P6SM BKN100
     FM281900 31010KT P6SM BKN050
     FM010200 30007KT P6SM SCT200=

USA.gov is the U.S. government's official web portal to all federal, state and local government web resources and services.